sensor_id;sensor_type;location;lat;lon;timestamp;P1;durP1;ratioP1;P2;durP2;ratioP2
6300;SDS011;3183;51.010;6.898;2023-02-01T00:00:16;22.63;;;7.03;;
6300;SDS011;3183;51.010;6.898;2023-02-01T00:02:43;24.67;;;8.00;;
6300;SDS011;3183;51.010;6.898;2023-02-01T00:05:10;31.50;;;8.90;;
6300;SDS011;3183;51.010;6.898;2023-02-01T00:07:38;25.97;;;8.70;;
6300;SDS011;3183;51.010;6.898;2023-02-01T00:10:06;27.40;;;9.30;;
6300;SDS011;3183;51.010;6.898;2023-02-01T00:12:33;20.73;;;8.10;;
6300;SDS011;3183;51.010;6.898;2023-02-01T00:15:00;27.33;;;9.17;;
6300;SDS011;3183;51.010;6.898;2023-02-01T00:17:28;24.03;;;8.60;;
6300;SDS011;3183;51.010;6.898;2023-02-01T00:19:56;21.00;;;8.80;;
6300;SDS011;3183;51.010;6.898;2023-02-01T00:22:23;23.87;;;9.80;;
6300;SDS011;3183;51.010;6.898;2023-02-01T00:24:50;23.73;;;7.97;;
6300;SDS011;3183;51.010;6.898;2023-02-01T00:27:17;38.60;;;8.83;;
6300;SDS011;3183;51.010;6.898;2023-02-01T00:29:46;13.83;;;7.43;;
6300;SDS011;3183;51.010;6.898;2023-02-01T00:32:13;18.70;;;7.87;;
6300;SDS011;3183;51.010;6.898;2023-02-01T00:34:42;13.90;;;6.57;;
6300;SDS011;3183;51.010;6.898;2023-02-01T00:37:09;36.90;;;7.67;;
6300;SDS011;3183;51.010;6.898;2023-02-01T00:39:36;14.80;;;7.30;;
6300;SDS011;3183;51.010;6.898;2023-02-01T00:42:03;38.17;;;8.00;;
6300;SDS011;3183;51.010;6.898;2023-02-01T00:44:30;19.83;;;6.67;;
6300;SDS011;3183;51.010;6.898;2023-02-01T00:47:00;18.53;;;6.70;;
6300;SDS011;3183;51.010;6.898;2023-02-01T00:49:27;19.33;;;6.00;;
6300;SDS011;3183;51.010;6.898;2023-02-01T00:51:56;13.33;;;5.93;;
6300;SDS011;3183;51.010;6.898;2023-02-01T00:54:23;15.80;;;5.40;;
6300;SDS011;3183;51.010;6.898;2023-02-01T00:56:50;23.50;;;5.97;;
6300;SDS011;3183;51.010;6.898;2023-02-01T00:59:17;12.83;;;6.53;;
6300;SDS011;3183;51.010;6.898;2023-02-01T01:01:45;26.17;;;6.03;;
6300;SDS011;3183;51.010;6.898;2023-02-01T01:04:12;13.20;;;5.73;;
6300;SDS011;3183;51.010;6.898;2023-02-01T01:06:39;18.03;;;5.30;;
6300;SDS011;3183;51.010;6.898;2023-02-01T01:09:07;20.20;;;5.43;;
6300;SDS011;3183;51.010;6.898;2023-02-01T01:11:35;17.27;;;6.43;;
6300;SDS011;3183;51.010;6.898;2023-02-01T01:14:03;20.53;;;5.90;;
6300;SDS011;3183;51.010;6.898;2023-02-01T01:16:31;17.13;;;6.10;;
6300;SDS011;3183;51.010;6.898;2023-02-01T01:18:59;20.27;;;5.40;;
6300;SDS011;3183;51.010;6.898;2023-02-01T01:21:27;18.63;;;6.57;;
6300;SDS011;3183;51.010;6.898;2023-02-01T01:23:54;23.67;;;4.33;;
6300;SDS011;3183;51.010;6.898;2023-02-01T01:26:24;21.93;;;4.70;;
6300;SDS011;3183;51.010;6.898;2023-02-01T01:28:51;14.27;;;4.00;;
6300;SDS011;3183;51.010;6.898;2023-02-01T01:31:19;25.60;;;5.03;;
6300;SDS011;3183;51.010;6.898;2023-02-01T01:33:47;17.27;;;4.57;;
6300;SDS011;3183;51.010;6.898;2023-02-01T01:36:15;12.47;;;4.00;;
6300;SDS011;3183;51.010;6.898;2023-02-01T01:38:42;15.53;;;4.80;;
6300;SDS011;3183;51.010;6.898;2023-02-01T01:41:11;10.70;;;3.77;;
6300;SDS011;3183;51.010;6.898;2023-02-01T01:43:48;13.40;;;4.70;;
6300;SDS011;3183;51.010;6.898;2023-02-01T01:46:16;8.57;;;4.33;;
6300;SDS011;3183;51.010;6.898;2023-02-01T01:48:43;15.73;;;4.70;;
6300;SDS011;3183;51.010;6.898;2023-02-01T01:51:10;17.93;;;4.23;;
6300;SDS011;3183;51.010;6.898;2023-02-01T01:53:41;16.20;;;4.03;;
6300;SDS011;3183;51.010;6.898;2023-02-01T01:56:09;19.73;;;3.77;;
6300;SDS011;3183;51.010;6.898;2023-02-01T01:58:36;15.47;;;4.07;;
6300;SDS011;3183;51.010;6.898;2023-02-01T02:01:05;13.93;;;3.90;;
6300;SDS011;3183;51.010;6.898;2023-02-01T02:03:34;10.40;;;3.83;;
6300;SDS011;3183;51.010;6.898;2023-02-01T02:06:02;23.93;;;4.43;;
6300;SDS011;3183;51.010;6.898;2023-02-01T02:08:30;17.27;;;4.60;;
6300;SDS011;3183;51.010;6.898;2023-02-01T02:10:57;12.23;;;4.17;;
6300;SDS011;3183;51.010;6.898;2023-02-01T02:13:27;23.33;;;4.90;;
6300;SDS011;3183;51.010;6.898;2023-02-01T02:16:04;16.30;;;3.13;;
6300;SDS011;3183;51.010;6.898;2023-02-01T02:18:40;20.10;;;4.07;;
6300;SDS011;3183;51.010;6.898;2023-02-01T02:21:14;27.63;;;6.30;;
6300;SDS011;3183;51.010;6.898;2023-02-01T02:26:36;13.57;;;3.90;;
6300;SDS011;3183;51.010;6.898;2023-02-01T02:31:58;29.73;;;5.10;;
6300;SDS011;3183;51.010;6.898;2023-02-01T02:34:32;22.40;;;4.80;;
6300;SDS011;3183;51.010;6.898;2023-02-01T02:37:03;15.97;;;4.60;;
6300;SDS011;3183;51.010;6.898;2023-02-01T02:39:36;16.37;;;4.47;;
6300;SDS011;3183;51.010;6.898;2023-02-01T02:42:07;21.53;;;5.23;;
6300;SDS011;3183;51.010;6.898;2023-02-01T02:44:57;15.80;;;4.13;;
6300;SDS011;3183;51.010;6.898;2023-02-01T02:47:44;13.93;;;4.10;;
6300;SDS011;3183;51.010;6.898;2023-02-01T02:50:15;24.37;;;5.10;;
6300;SDS011;3183;51.010;6.898;2023-02-01T02:53:03;22.40;;;4.77;;
6300;SDS011;3183;51.010;6.898;2023-02-01T02:55:50;27.50;;;5.77;;
6300;SDS011;3183;51.010;6.898;2023-02-01T02:58:32;23.13;;;5.80;;
6300;SDS011;3183;51.010;6.898;2023-02-01T03:01:16;19.80;;;6.10;;
6300;SDS011;3183;51.010;6.898;2023-02-01T03:04:01;17.37;;;6.30;;
6300;SDS011;3183;51.010;6.898;2023-02-01T03:06:35;18.50;;;6.60;;
6300;SDS011;3183;51.010;6.898;2023-02-01T03:09:03;10.97;;;5.50;;
6300;SDS011;3183;51.010;6.898;2023-02-01T03:11:32;17.80;;;6.20;;
6300;SDS011;3183;51.010;6.898;2023-02-01T03:14:14;18.83;;;5.60;;
6300;SDS011;3183;51.010;6.898;2023-02-01T03:16:43;20.70;;;6.07;;
6300;SDS011;3183;51.010;6.898;2023-02-01T03:19:13;25.90;;;6.30;;
6300;SDS011;3183;51.010;6.898;2023-02-01T03:21:43;23.20;;;5.33;;
6300;SDS011;3183;51.010;6.898;2023-02-01T03:24:12;35.93;;;6.20;;
6300;SDS011;3183;51.010;6.898;2023-02-01T03:26:43;18.70;;;5.27;;
6300;SDS011;3183;51.010;6.898;2023-02-01T03:29:13;14.67;;;5.07;;
6300;SDS011;3183;51.010;6.898;2023-02-01T03:31:41;26.00;;;6.53;;
6300;SDS011;3183;51.010;6.898;2023-02-01T03:34:08;21.63;;;6.07;;
6300;SDS011;3183;51.010;6.898;2023-02-01T03:36:35;17.07;;;5.33;;
6300;SDS011;3183;51.010;6.898;2023-02-01T03:39:07;16.33;;;5.93;;
6300;SDS011;3183;51.010;6.898;2023-02-01T03:41:37;21.70;;;5.80;;
6300;SDS011;3183;51.010;6.898;2023-02-01T03:44:08;19.30;;;5.70;;
6300;SDS011;3183;51.010;6.898;2023-02-01T03:46:39;22.13;;;5.23;;
6300;SDS011;3183;51.010;6.898;2023-02-01T03:49:09;19.57;;;6.20;;
6300;SDS011;3183;51.010;6.898;2023-02-01T03:51:37;12.43;;;5.10;;
6300;SDS011;3183;51.010;6.898;2023-02-01T03:54:08;18.37;;;5.60;;
6300;SDS011;3183;51.010;6.898;2023-02-01T03:56:36;20.53;;;5.87;;
6300;SDS011;3183;51.010;6.898;2023-02-01T03:59:04;15.90;;;4.60;;
6300;SDS011;3183;51.010;6.898;2023-02-01T04:01:31;18.20;;;5.53;;
6300;SDS011;3183;51.010;6.898;2023-02-01T04:03:58;21.07;;;5.80;;
6300;SDS011;3183;51.010;6.898;2023-02-01T04:06:26;26.67;;;5.17;;
6300;SDS011;3183;51.010;6.898;2023-02-01T04:08:53;17.37;;;4.60;;
6300;SDS011;3183;51.010;6.898;2023-02-01T04:11:21;16.93;;;4.80;;
6300;SDS011;3183;51.010;6.898;2023-02-01T04:13:48;19.90;;;5.53;;
6300;SDS011;3183;51.010;6.898;2023-02-01T04:16:15;13.33;;;4.50;;
6300;SDS011;3183;51.010;6.898;2023-02-01T04:18:43;18.87;;;5.33;;
6300;SDS011;3183;51.010;6.898;2023-02-01T04:21:10;13.40;;;4.00;;
6300;SDS011;3183;51.010;6.898;2023-02-01T04:23:37;19.00;;;4.30;;
6300;SDS011;3183;51.010;6.898;2023-02-01T04:26:04;28.83;;;4.90;;
6300;SDS011;3183;51.010;6.898;2023-02-01T04:28:33;16.63;;;4.40;;
6300;SDS011;3183;51.010;6.898;2023-02-01T04:31:00;19.77;;;5.03;;
6300;SDS011;3183;51.010;6.898;2023-02-01T04:33:27;15.70;;;4.17;;
6300;SDS011;3183;51.010;6.898;2023-02-01T04:35:54;30.10;;;5.40;;
6300;SDS011;3183;51.010;6.898;2023-02-01T04:38:22;19.03;;;5.50;;
6300;SDS011;3183;51.010;6.898;2023-02-01T04:40:49;26.47;;;5.13;;
6300;SDS011;3183;51.010;6.898;2023-02-01T04:43:16;11.60;;;3.90;;
6300;SDS011;3183;51.010;6.898;2023-02-01T04:45:47;19.33;;;4.93;;
6300;SDS011;3183;51.010;6.898;2023-02-01T04:48:15;19.90;;;4.40;;
6300;SDS011;3183;51.010;6.898;2023-02-01T04:50:42;15.00;;;5.10;;
6300;SDS011;3183;51.010;6.898;2023-02-01T04:53:12;19.07;;;4.43;;
6300;SDS011;3183;51.010;6.898;2023-02-01T04:55:40;24.63;;;5.50;;
6300;SDS011;3183;51.010;6.898;2023-02-01T04:58:07;30.97;;;5.20;;
6300;SDS011;3183;51.010;6.898;2023-02-01T05:00:34;29.07;;;4.97;;
6300;SDS011;3183;51.010;6.898;2023-02-01T05:03:03;16.70;;;4.47;;
6300;SDS011;3183;51.010;6.898;2023-02-01T05:05:30;17.87;;;4.70;;
6300;SDS011;3183;51.010;6.898;2023-02-01T05:07:57;24.20;;;4.90;;
6300;SDS011;3183;51.010;6.898;2023-02-01T05:10:25;23.33;;;4.90;;
6300;SDS011;3183;51.010;6.898;2023-02-01T05:12:52;22.80;;;4.40;;
6300;SDS011;3183;51.010;6.898;2023-02-01T05:15:37;20.40;;;3.70;;
6300;SDS011;3183;51.010;6.898;2023-02-01T05:18:05;15.53;;;3.77;;
6300;SDS011;3183;51.010;6.898;2023-02-01T05:20:32;21.13;;;4.60;;
6300;SDS011;3183;51.010;6.898;2023-02-01T05:22:59;16.63;;;3.93;;
6300;SDS011;3183;51.010;6.898;2023-02-01T05:25:27;11.70;;;3.77;;
6300;SDS011;3183;51.010;6.898;2023-02-01T05:27:54;24.80;;;3.97;;
6300;SDS011;3183;51.010;6.898;2023-02-01T05:30:21;26.37;;;4.73;;
6300;SDS011;3183;51.010;6.898;2023-02-01T05:32:49;16.40;;;3.90;;
6300;SDS011;3183;51.010;6.898;2023-02-01T05:35:17;28.30;;;3.63;;
6300;SDS011;3183;51.010;6.898;2023-02-01T05:37:45;26.60;;;4.70;;
6300;SDS011;3183;51.010;6.898;2023-02-01T05:40:12;19.17;;;4.40;;
6300;SDS011;3183;51.010;6.898;2023-02-01T05:42:39;19.00;;;3.50;;
6300;SDS011;3183;51.010;6.898;2023-02-01T05:45:07;22.13;;;4.33;;
6300;SDS011;3183;51.010;6.898;2023-02-01T05:47:34;13.27;;;3.10;;
6300;SDS011;3183;51.010;6.898;2023-02-01T05:50:02;16.60;;;4.33;;
6300;SDS011;3183;51.010;6.898;2023-02-01T05:52:30;13.93;;;3.37;;
6300;SDS011;3183;51.010;6.898;2023-02-01T05:54:57;16.50;;;3.10;;
6300;SDS011;3183;51.010;6.898;2023-02-01T05:57:24;17.23;;;3.27;;
6300;SDS011;3183;51.010;6.898;2023-02-01T05:59:52;13.30;;;3.57;;
6300;SDS011;3183;51.010;6.898;2023-02-01T06:02:19;23.00;;;3.60;;
6300;SDS011;3183;51.010;6.898;2023-02-01T06:04:46;36.07;;;4.77;;
6300;SDS011;3183;51.010;6.898;2023-02-01T06:07:13;17.03;;;3.50;;
6300;SDS011;3183;51.010;6.898;2023-02-01T06:09:42;20.97;;;2.63;;
6300;SDS011;3183;51.010;6.898;2023-02-01T06:12:09;26.00;;;3.20;;
6300;SDS011;3183;51.010;6.898;2023-02-01T06:14:36;22.73;;;3.33;;
6300;SDS011;3183;51.010;6.898;2023-02-01T06:17:03;17.13;;;3.50;;
6300;SDS011;3183;51.010;6.898;2023-02-01T06:19:31;15.03;;;4.23;;
6300;SDS011;3183;51.010;6.898;2023-02-01T06:21:59;32.37;;;3.17;;
6300;SDS011;3183;51.010;6.898;2023-02-01T06:24:26;15.97;;;4.03;;
6300;SDS011;3183;51.010;6.898;2023-02-01T06:26:54;14.43;;;3.47;;
6300;SDS011;3183;51.010;6.898;2023-02-01T06:29:21;16.80;;;4.00;;
6300;SDS011;3183;51.010;6.898;2023-02-01T06:31:49;18.63;;;3.33;;
6300;SDS011;3183;51.010;6.898;2023-02-01T06:34:16;21.07;;;3.40;;
6300;SDS011;3183;51.010;6.898;2023-02-01T06:36:43;12.60;;;3.10;;
6300;SDS011;3183;51.010;6.898;2023-02-01T06:39:10;17.80;;;4.53;;
6300;SDS011;3183;51.010;6.898;2023-02-01T06:41:40;28.27;;;3.83;;
6300;SDS011;3183;51.010;6.898;2023-02-01T06:44:09;20.63;;;3.87;;
6300;SDS011;3183;51.010;6.898;2023-02-01T06:46:36;15.27;;;3.20;;
6300;SDS011;3183;51.010;6.898;2023-02-01T06:49:03;17.10;;;3.33;;
6300;SDS011;3183;51.010;6.898;2023-02-01T06:51:30;15.97;;;3.77;;
6300;SDS011;3183;51.010;6.898;2023-02-01T06:53:57;13.30;;;3.50;;
6300;SDS011;3183;51.010;6.898;2023-02-01T06:56:25;14.60;;;3.90;;
6300;SDS011;3183;51.010;6.898;2023-02-01T06:58:52;15.87;;;4.43;;
6300;SDS011;3183;51.010;6.898;2023-02-01T07:01:20;29.20;;;3.50;;
6300;SDS011;3183;51.010;6.898;2023-02-01T07:03:48;13.37;;;3.80;;
6300;SDS011;3183;51.010;6.898;2023-02-01T07:06:15;13.77;;;3.20;;
6300;SDS011;3183;51.010;6.898;2023-02-01T07:08:43;25.57;;;5.43;;
6300;SDS011;3183;51.010;6.898;2023-02-01T07:11:11;16.63;;;4.00;;
6300;SDS011;3183;51.010;6.898;2023-02-01T07:13:39;16.60;;;3.77;;
6300;SDS011;3183;51.010;6.898;2023-02-01T07:16:07;15.80;;;3.90;;
6300;SDS011;3183;51.010;6.898;2023-02-01T07:18:37;14.47;;;3.67;;
6300;SDS011;3183;51.010;6.898;2023-02-01T07:21:04;20.53;;;3.93;;
6300;SDS011;3183;51.010;6.898;2023-02-01T07:23:31;15.83;;;3.87;;
6300;SDS011;3183;51.010;6.898;2023-02-01T07:25:59;21.03;;;4.77;;
6300;SDS011;3183;51.010;6.898;2023-02-01T07:28:28;27.27;;;5.37;;
6300;SDS011;3183;51.010;6.898;2023-02-01T07:31:01;23.20;;;4.30;;
6300;SDS011;3183;51.010;6.898;2023-02-01T07:33:28;20.43;;;4.63;;
6300;SDS011;3183;51.010;6.898;2023-02-01T07:35:56;13.80;;;3.63;;
6300;SDS011;3183;51.010;6.898;2023-02-01T07:38:24;20.03;;;5.27;;
6300;SDS011;3183;51.010;6.898;2023-02-01T07:40:51;13.20;;;3.70;;
6300;SDS011;3183;51.010;6.898;2023-02-01T07:43:23;14.13;;;3.63;;
6300;SDS011;3183;51.010;6.898;2023-02-01T07:45:50;14.33;;;4.33;;
6300;SDS011;3183;51.010;6.898;2023-02-01T07:48:18;35.30;;;4.43;;
6300;SDS011;3183;51.010;6.898;2023-02-01T07:50:45;17.83;;;3.90;;
6300;SDS011;3183;51.010;6.898;2023-02-01T07:53:13;23.07;;;4.57;;
6300;SDS011;3183;51.010;6.898;2023-02-01T07:55:41;22.60;;;4.53;;
6300;SDS011;3183;51.010;6.898;2023-02-01T07:58:08;28.93;;;5.60;;
6300;SDS011;3183;51.010;6.898;2023-02-01T08:00:35;27.63;;;3.97;;
6300;SDS011;3183;51.010;6.898;2023-02-01T08:03:20;20.53;;;4.13;;
6300;SDS011;3183;51.010;6.898;2023-02-01T08:05:47;22.93;;;5.00;;
6300;SDS011;3183;51.010;6.898;2023-02-01T08:08:15;13.23;;;3.90;;
6300;SDS011;3183;51.010;6.898;2023-02-01T08:10:43;24.10;;;4.47;;
6300;SDS011;3183;51.010;6.898;2023-02-01T08:13:10;14.23;;;3.37;;
6300;SDS011;3183;51.010;6.898;2023-02-01T08:15:37;26.57;;;4.70;;
6300;SDS011;3183;51.010;6.898;2023-02-01T08:18:04;13.33;;;3.27;;
6300;SDS011;3183;51.010;6.898;2023-02-01T08:20:31;17.90;;;3.73;;
6300;SDS011;3183;51.010;6.898;2023-02-01T08:23:00;17.43;;;3.33;;
6300;SDS011;3183;51.010;6.898;2023-02-01T08:25:29;28.37;;;5.03;;
6300;SDS011;3183;51.010;6.898;2023-02-01T08:27:56;19.93;;;3.90;;
6300;SDS011;3183;51.010;6.898;2023-02-01T08:30:23;22.57;;;4.57;;
6300;SDS011;3183;51.010;6.898;2023-02-01T08:32:52;20.43;;;3.73;;
6300;SDS011;3183;51.010;6.898;2023-02-01T08:35:19;24.47;;;4.10;;
6300;SDS011;3183;51.010;6.898;2023-02-01T08:37:46;21.20;;;4.60;;
6300;SDS011;3183;51.010;6.898;2023-02-01T08:40:13;15.13;;;3.90;;
6300;SDS011;3183;51.010;6.898;2023-02-01T08:42:42;19.63;;;3.83;;
6300;SDS011;3183;51.010;6.898;2023-02-01T08:45:19;21.23;;;4.30;;
6300;SDS011;3183;51.010;6.898;2023-02-01T08:47:47;20.83;;;3.43;;
6300;SDS011;3183;51.010;6.898;2023-02-01T08:50:14;24.70;;;4.57;;
6300;SDS011;3183;51.010;6.898;2023-02-01T08:52:42;16.90;;;3.73;;
6300;SDS011;3183;51.010;6.898;2023-02-01T08:55:09;17.03;;;3.47;;
6300;SDS011;3183;51.010;6.898;2023-02-01T08:57:36;14.53;;;2.97;;
6300;SDS011;3183;51.010;6.898;2023-02-01T09:00:05;14.40;;;3.67;;
6300;SDS011;3183;51.010;6.898;2023-02-01T09:02:33;23.27;;;4.37;;
6300;SDS011;3183;51.010;6.898;2023-02-01T09:05:00;18.43;;;4.07;;
6300;SDS011;3183;51.010;6.898;2023-02-01T09:07:27;15.70;;;4.40;;
6300;SDS011;3183;51.010;6.898;2023-02-01T09:09:54;19.97;;;4.67;;
6300;SDS011;3183;51.010;6.898;2023-02-01T09:12:25;15.67;;;3.10;;
6300;SDS011;3183;51.010;6.898;2023-02-01T09:14:53;23.60;;;5.40;;
6300;SDS011;3183;51.010;6.898;2023-02-01T09:17:22;17.63;;;3.60;;
6300;SDS011;3183;51.010;6.898;2023-02-01T09:19:49;24.87;;;4.93;;
6300;SDS011;3183;51.010;6.898;2023-02-01T09:22:16;26.43;;;5.17;;
6300;SDS011;3183;51.010;6.898;2023-02-01T09:24:43;21.67;;;4.47;;
6300;SDS011;3183;51.010;6.898;2023-02-01T09:27:10;27.57;;;5.10;;
6300;SDS011;3183;51.010;6.898;2023-02-01T09:29:37;22.53;;;4.30;;
6300;SDS011;3183;51.010;6.898;2023-02-01T09:32:04;14.90;;;4.67;;
6300;SDS011;3183;51.010;6.898;2023-02-01T09:34:33;25.83;;;3.60;;
6300;SDS011;3183;51.010;6.898;2023-02-01T09:37:01;30.50;;;5.00;;
6300;SDS011;3183;51.010;6.898;2023-02-01T09:39:28;23.17;;;4.60;;
6300;SDS011;3183;51.010;6.898;2023-02-01T09:41:57;17.07;;;4.00;;
6300;SDS011;3183;51.010;6.898;2023-02-01T09:47:12;23.97;;;5.10;;
6300;SDS011;3183;51.010;6.898;2023-02-01T09:49:43;27.00;;;4.63;;
6300;SDS011;3183;51.010;6.898;2023-02-01T09:52:12;31.97;;;3.73;;
6300;SDS011;3183;51.010;6.898;2023-02-01T09:54:41;19.87;;;3.93;;
6300;SDS011;3183;51.010;6.898;2023-02-01T09:57:10;25.40;;;4.50;;
6300;SDS011;3183;51.010;6.898;2023-02-01T09:59:41;22.43;;;4.20;;
6300;SDS011;3183;51.010;6.898;2023-02-01T10:02:11;22.30;;;5.63;;
6300;SDS011;3183;51.010;6.898;2023-02-01T10:04:39;21.90;;;4.30;;
6300;SDS011;3183;51.010;6.898;2023-02-01T10:07:10;22.80;;;4.90;;
6300;SDS011;3183;51.010;6.898;2023-02-01T10:09:42;23.93;;;4.10;;
6300;SDS011;3183;51.010;6.898;2023-02-01T10:12:21;19.23;;;3.93;;
6300;SDS011;3183;51.010;6.898;2023-02-01T10:14:55;18.10;;;3.30;;
6300;SDS011;3183;51.010;6.898;2023-02-01T10:17:25;19.00;;;4.17;;
6300;SDS011;3183;51.010;6.898;2023-02-01T10:20:01;15.70;;;3.53;;
6300;SDS011;3183;51.010;6.898;2023-02-01T10:22:35;14.40;;;3.93;;
6300;SDS011;3183;51.010;6.898;2023-02-01T10:25:05;15.30;;;4.00;;
6300;SDS011;3183;51.010;6.898;2023-02-01T10:27:35;22.43;;;4.30;;
6300;SDS011;3183;51.010;6.898;2023-02-01T10:30:08;20.43;;;5.00;;
6300;SDS011;3183;51.010;6.898;2023-02-01T10:32:41;15.07;;;4.20;;
6300;SDS011;3183;51.010;6.898;2023-02-01T10:35:09;16.10;;;4.00;;
6300;SDS011;3183;51.010;6.898;2023-02-01T10:37:42;20.03;;;4.70;;
6300;SDS011;3183;51.010;6.898;2023-02-01T10:40:13;25.17;;;4.60;;
6300;SDS011;3183;51.010;6.898;2023-02-01T10:42:41;22.67;;;3.90;;
6300;SDS011;3183;51.010;6.898;2023-02-01T10:45:11;30.50;;;4.30;;
6300;SDS011;3183;51.010;6.898;2023-02-01T10:47:40;15.43;;;3.77;;
6300;SDS011;3183;51.010;6.898;2023-02-01T10:50:11;24.90;;;5.70;;
6300;SDS011;3183;51.010;6.898;2023-02-01T10:52:42;20.00;;;3.73;;
6300;SDS011;3183;51.010;6.898;2023-02-01T10:55:26;21.60;;;4.20;;
6300;SDS011;3183;51.010;6.898;2023-02-01T10:57:55;11.23;;;3.47;;
6300;SDS011;3183;51.010;6.898;2023-02-01T11:00:22;21.23;;;4.30;;
6300;SDS011;3183;51.010;6.898;2023-02-01T11:02:49;12.90;;;4.10;;
6300;SDS011;3183;51.010;6.898;2023-02-01T11:05:17;19.90;;;3.77;;
6300;SDS011;3183;51.010;6.898;2023-02-01T11:07:48;19.93;;;4.60;;
6300;SDS011;3183;51.010;6.898;2023-02-01T11:12:57;11.87;;;3.93;;
6300;SDS011;3183;51.010;6.898;2023-02-01T11:15:25;24.57;;;4.07;;
6300;SDS011;3183;51.010;6.898;2023-02-01T11:17:53;20.93;;;4.40;;
6300;SDS011;3183;51.010;6.898;2023-02-01T11:20:33;18.97;;;4.73;;
6300;SDS011;3183;51.010;6.898;2023-02-01T11:23:03;17.00;;;4.23;;
6300;SDS011;3183;51.010;6.898;2023-02-01T11:25:36;18.50;;;4.73;;
6300;SDS011;3183;51.010;6.898;2023-02-01T11:28:04;21.53;;;4.30;;
6300;SDS011;3183;51.010;6.898;2023-02-01T11:30:32;15.30;;;4.10;;
6300;SDS011;3183;51.010;6.898;2023-02-01T11:32:59;13.77;;;4.30;;
6300;SDS011;3183;51.010;6.898;2023-02-01T11:35:27;16.60;;;4.00;;
6300;SDS011;3183;51.010;6.898;2023-02-01T11:37:55;16.20;;;3.80;;
6300;SDS011;3183;51.010;6.898;2023-02-01T11:40:27;19.23;;;4.30;;
6300;SDS011;3183;51.010;6.898;2023-02-01T11:42:56;18.43;;;3.80;;
6300;SDS011;3183;51.010;6.898;2023-02-01T11:45:25;19.00;;;4.90;;
6300;SDS011;3183;51.010;6.898;2023-02-01T11:47:53;18.00;;;3.40;;
6300;SDS011;3183;51.010;6.898;2023-02-01T11:50:22;28.00;;;4.10;;
6300;SDS011;3183;51.010;6.898;2023-02-01T11:52:59;28.57;;;3.93;;
6300;SDS011;3183;51.010;6.898;2023-02-01T11:55:37;17.63;;;4.23;;
6300;SDS011;3183;51.010;6.898;2023-02-01T11:58:09;15.20;;;3.40;;
6300;SDS011;3183;51.010;6.898;2023-02-01T12:00:46;26.07;;;4.80;;
6300;SDS011;3183;51.010;6.898;2023-02-01T12:03:28;17.93;;;4.40;;
6300;SDS011;3183;51.010;6.898;2023-02-01T12:05:59;21.57;;;4.37;;
6300;SDS011;3183;51.010;6.898;2023-02-01T12:08:36;7.30;;;2.83;;
6300;SDS011;3183;51.010;6.898;2023-02-01T12:11:15;18.17;;;3.27;;
6300;SDS011;3183;51.010;6.898;2023-02-01T12:13:47;14.40;;;3.00;;
6300;SDS011;3183;51.010;6.898;2023-02-01T12:16:29;13.77;;;3.33;;
6300;SDS011;3183;51.010;6.898;2023-02-01T12:19:05;22.90;;;4.57;;
6300;SDS011;3183;51.010;6.898;2023-02-01T12:21:42;17.53;;;3.60;;
6300;SDS011;3183;51.010;6.898;2023-02-01T12:24:19;13.57;;;3.10;;
6300;SDS011;3183;51.010;6.898;2023-02-01T12:26:53;14.37;;;3.30;;
6300;SDS011;3183;51.010;6.898;2023-02-01T12:29:25;15.30;;;3.77;;
6300;SDS011;3183;51.010;6.898;2023-02-01T12:32:00;27.53;;;4.80;;
6300;SDS011;3183;51.010;6.898;2023-02-01T12:34:34;21.87;;;4.43;;
6300;SDS011;3183;51.010;6.898;2023-02-01T12:37:06;14.87;;;3.70;;
6300;SDS011;3183;51.010;6.898;2023-02-01T12:39:38;18.60;;;3.90;;
6300;SDS011;3183;51.010;6.898;2023-02-01T12:42:09;19.93;;;4.43;;
6300;SDS011;3183;51.010;6.898;2023-02-01T12:44:40;22.13;;;3.27;;
6300;SDS011;3183;51.010;6.898;2023-02-01T12:47:14;8.30;;;3.40;;
6300;SDS011;3183;51.010;6.898;2023-02-01T12:49:44;15.23;;;3.63;;
6300;SDS011;3183;51.010;6.898;2023-02-01T12:52:14;13.27;;;3.60;;
6300;SDS011;3183;51.010;6.898;2023-02-01T12:54:42;22.43;;;5.40;;
6300;SDS011;3183;51.010;6.898;2023-02-01T12:57:15;15.20;;;3.27;;
6300;SDS011;3183;51.010;6.898;2023-02-01T12:59:44;13.83;;;3.20;;
6300;SDS011;3183;51.010;6.898;2023-02-01T13:02:15;13.60;;;3.70;;
6300;SDS011;3183;51.010;6.898;2023-02-01T13:04:47;15.60;;;3.37;;
6300;SDS011;3183;51.010;6.898;2023-02-01T13:07:17;20.60;;;3.80;;
6300;SDS011;3183;51.010;6.898;2023-02-01T13:09:47;29.27;;;3.47;;
6300;SDS011;3183;51.010;6.898;2023-02-01T13:12:19;11.57;;;2.60;;
6300;SDS011;3183;51.010;6.898;2023-02-01T13:14:48;19.80;;;4.53;;
6300;SDS011;3183;51.010;6.898;2023-02-01T13:17:18;17.67;;;3.97;;
6300;SDS011;3183;51.010;6.898;2023-02-01T13:19:49;16.07;;;3.10;;
6300;SDS011;3183;51.010;6.898;2023-02-01T13:22:20;7.40;;;2.53;;
6300;SDS011;3183;51.010;6.898;2023-02-01T13:24:51;15.60;;;3.30;;
6300;SDS011;3183;51.010;6.898;2023-02-01T13:27:20;17.27;;;4.57;;
6300;SDS011;3183;51.010;6.898;2023-02-01T13:29:51;32.90;;;4.33;;
6300;SDS011;3183;51.010;6.898;2023-02-01T13:35:13;14.03;;;2.90;;
6300;SDS011;3183;51.010;6.898;2023-02-01T13:37:50;9.00;;;2.90;;
6300;SDS011;3183;51.010;6.898;2023-02-01T13:40:29;16.40;;;3.27;;
6300;SDS011;3183;51.010;6.898;2023-02-01T13:43:00;11.87;;;2.87;;
6300;SDS011;3183;51.010;6.898;2023-02-01T13:45:29;13.50;;;3.17;;
6300;SDS011;3183;51.010;6.898;2023-02-01T13:47:57;20.33;;;4.83;;
6300;SDS011;3183;51.010;6.898;2023-02-01T13:50:26;16.73;;;3.13;;
6300;SDS011;3183;51.010;6.898;2023-02-01T13:52:55;19.00;;;4.10;;
6300;SDS011;3183;51.010;6.898;2023-02-01T13:55:26;19.33;;;3.10;;
6300;SDS011;3183;51.010;6.898;2023-02-01T13:58:04;19.13;;;2.93;;
6300;SDS011;3183;51.010;6.898;2023-02-01T14:00:31;12.47;;;3.50;;
6300;SDS011;3183;51.010;6.898;2023-02-01T14:06:00;14.97;;;2.87;;
6300;SDS011;3183;51.010;6.898;2023-02-01T14:08:41;9.50;;;3.27;;
6300;SDS011;3183;51.010;6.898;2023-02-01T14:13:56;21.57;;;3.93;;
6300;SDS011;3183;51.010;6.898;2023-02-01T14:16:33;10.67;;;3.10;;
6300;SDS011;3183;51.010;6.898;2023-02-01T14:19:00;17.27;;;3.27;;
6300;SDS011;3183;51.010;6.898;2023-02-01T14:21:29;12.50;;;2.80;;
6300;SDS011;3183;51.010;6.898;2023-02-01T14:23:59;15.57;;;3.30;;
6300;SDS011;3183;51.010;6.898;2023-02-01T14:26:27;15.03;;;3.07;;
6300;SDS011;3183;51.010;6.898;2023-02-01T14:29:19;10.60;;;2.33;;
6300;SDS011;3183;51.010;6.898;2023-02-01T14:32:01;11.90;;;2.20;;
6300;SDS011;3183;51.010;6.898;2023-02-01T14:34:31;12.67;;;2.50;;
6300;SDS011;3183;51.010;6.898;2023-02-01T14:37:02;14.97;;;2.60;;
6300;SDS011;3183;51.010;6.898;2023-02-01T14:39:34;27.40;;;2.70;;
6300;SDS011;3183;51.010;6.898;2023-02-01T14:42:04;18.97;;;2.93;;
6300;SDS011;3183;51.010;6.898;2023-02-01T14:44:36;13.60;;;2.70;;
6300;SDS011;3183;51.010;6.898;2023-02-01T14:49:54;9.97;;;2.97;;
6300;SDS011;3183;51.010;6.898;2023-02-01T14:52:22;10.57;;;2.90;;
6300;SDS011;3183;51.010;6.898;2023-02-01T14:54:54;12.10;;;3.03;;
6300;SDS011;3183;51.010;6.898;2023-02-01T14:57:23;9.63;;;2.70;;
6300;SDS011;3183;51.010;6.898;2023-02-01T14:59:53;9.53;;;2.63;;
6300;SDS011;3183;51.010;6.898;2023-02-01T15:02:24;17.30;;;2.87;;
6300;SDS011;3183;51.010;6.898;2023-02-01T15:04:53;12.83;;;2.60;;
6300;SDS011;3183;51.010;6.898;2023-02-01T15:07:21;11.70;;;3.33;;
6300;SDS011;3183;51.010;6.898;2023-02-01T15:09:49;11.33;;;4.03;;
6300;SDS011;3183;51.010;6.898;2023-02-01T15:12:18;16.40;;;3.53;;
6300;SDS011;3183;51.010;6.898;2023-02-01T15:15:05;9.30;;;2.20;;
6300;SDS011;3183;51.010;6.898;2023-02-01T15:17:36;17.93;;;3.27;;
6300;SDS011;3183;51.010;6.898;2023-02-01T15:20:11;18.37;;;4.37;;
6300;SDS011;3183;51.010;6.898;2023-02-01T15:22:39;16.27;;;3.23;;
6300;SDS011;3183;51.010;6.898;2023-02-01T15:25:17;15.70;;;2.63;;
6300;SDS011;3183;51.010;6.898;2023-02-01T15:27:45;13.90;;;3.33;;
6300;SDS011;3183;51.010;6.898;2023-02-01T15:30:17;13.40;;;2.90;;
6300;SDS011;3183;51.010;6.898;2023-02-01T15:32:48;17.37;;;2.50;;
6300;SDS011;3183;51.010;6.898;2023-02-01T15:38:18;23.63;;;3.37;;
6300;SDS011;3183;51.010;6.898;2023-02-01T15:40:52;22.03;;;3.73;;
6300;SDS011;3183;51.010;6.898;2023-02-01T15:43:20;6.63;;;2.30;;